Time;durP1;ratioP1;P1;durP2;ratioP2;P2;SDS_P1;SDS_P2;PMS_P1;PMS_P2;Temp;Humidity;BMP_temperature;BMP_pressure;BME280_temperature;BME280_humidity;BME280_pressure;Samples;Min_cycle;Max_cycle;Signal;HPM_P1;HPM_P2
2023/12/11 00:01:04;;;;;;;22.88;10.15;;;;;;;1.27;77.83;99627.88;4922357;29;20141;-96
2023/12/11 00:03:33;;;;;;;18.80;9.60;;;;;;;1.29;78.70;99631.97;4905585;29;20043;-96
2023/12/11 00:06:05;;;;;;;19.90;10.10;;;;;;;1.41;78.65;99648.91;4904874;29;20100;-95
2023/12/11 00:08:38;;;;;;;19.60;9.93;;;;;;;1.15;78.07;99631.09;4920496;29;20071;-96
2023/12/11 00:11:04;;;;;;;24.08;10.15;;;;;;;1.33;78.06;99662.38;4900963;29;20439;-95
2023/12/11 00:13:29;;;;;;;17.83;8.85;;;;;;;1.30;78.25;99644.19;4900485;29;20081;-96
2023/12/11 00:16:05;;;;;;;18.48;9.02;;;;;;;1.30;77.60;99627.47;4900950;29;20028;-95
2023/12/11 00:18:31;;;;;;;18.38;9.00;;;;;;;1.48;77.12;99656.88;4901294;29;20043;-95
2023/12/11 00:21:00;;;;;;;21.50;9.13;;;;;;;1.32;77.98;99633.38;4916414;29;20028;-94
2023/12/11 00:23:26;;;;;;;18.00;9.18;;;;;;;1.41;78.10;99640.97;4900422;29;20036;-95
2023/12/11 00:25:57;;;;;;;18.52;8.45;;;;;;;1.46;77.82;99652.81;4900333;29;20129;-95
2023/12/11 00:28:23;;;;;;;15.02;7.45;;;;;;;1.45;77.37;99640.53;4915689;29;20043;-96
2023/12/11 00:30:58;;;;;;;17.08;8.70;;;;;;;1.65;77.46;99665.28;4920788;29;20035;-96
2023/12/11 00:33:30;;;;;;;18.40;7.80;;;;;;;1.45;77.37;99632.59;4925487;29;20485;-96
2023/12/11 00:36:05;;;;;;;18.52;8.45;;;;;;;1.55;77.33;99635.66;4939884;29;20007;-95
2023/12/11 00:39:00;;;;;;;16.80;8.50;;;;;;;1.55;77.33;99638.31;4925163;29;20477;-96
2023/12/11 00:41:48;;;;;;;15.25;7.15;;;;;;;1.58;76.66;99629.97;4943800;29;20016;-96
2023/12/11 00:44:26;;;;;;;13.48;7.95;;;;;;;1.74;76.14;99628.72;4938847;29;20095;-96
2023/12/11 00:47:04;;;;;;;15.93;7.97;;;;;;;1.93;75.88;99648.31;4940563;29;20032;-96
2023/12/11 00:49:32;;;;;;;20.02;7.82;;;;;;;1.85;75.42;99636.09;4940057;29;20043;-96
2023/12/11 00:52:00;;;;;;;17.38;9.18;;;;;;;1.83;75.36;99627.50;4938403;29;20036;-96
2023/12/11 00:54:35;;;;;;;17.48;8.48;;;;;;;1.94;75.24;99628.72;4939238;29;20032;-96
2023/12/11 00:57:18;;;;;;;16.85;8.00;;;;;;;1.99;75.05;99628.91;4938839;29;20063;-96
2023/12/11 00:59:44;;;;;;;19.45;8.52;;;;;;;1.99;74.88;99618.28;4938949;29;20031;-95
2023/12/11 01:02:18;;;;;;;19.25;8.77;;;;;;;2.01;74.81;99616.25;4923218;29;20118;-96
2023/12/11 01:04:51;;;;;;;19.55;8.25;;;;;;;2.00;74.46;99620.75;4936069;29;20023;-95
2023/12/11 01:07:20;;;;;;;15.82;8.48;;;;;;;2.12;74.43;99626.25;4934746;29;20043;-95
2023/12/11 01:09:56;;;;;;;16.45;8.70;;;;;;;2.02;74.77;99620.53;4932684;29;20435;-96
2023/12/11 01:12:27;;;;;;;16.42;8.25;;;;;;;2.18;74.16;99627.28;4934325;29;20046;-94
2023/12/11 01:14:58;;;;;;;16.90;8.32;;;;;;;1.97;74.27;99583.16;4935334;29;20039;-96
2023/12/11 01:17:27;;;;;;;16.65;8.32;;;;;;;2.00;74.19;99591.53;4934056;29;20028;-95
2023/12/11 01:19:53;;;;;;;14.00;8.05;;;;;;;1.95;74.29;99577.22;4946509;29;20067;-95
2023/12/11 01:22:21;;;;;;;16.27;8.02;;;;;;;2.16;75.03;99616.03;4917855;29;20045;-95
2023/12/11 01:25:02;;;;;;;14.80;8.15;;;;;;;2.13;74.61;99593.34;4919075;29;20046;-96
2023/12/11 01:27:31;;;;;;;14.65;7.70;;;;;;;2.02;74.43;99562.94;4936065;29;20113;-95
2023/12/11 01:30:03;;;;;;;15.75;7.88;;;;;;;1.87;74.83;99559.69;4934446;29;20032;-96
2023/12/11 01:32:54;;;;;;;13.55;7.63;;;;;;;1.82;75.53;99562.97;4935465;29;20083;-96
2023/12/11 01:35:36;;;;;;;15.00;7.47;;;;;;;1.82;75.30;99543.56;4937704;29;20036;-95
2023/12/11 01:38:09;;;;;;;16.27;7.87;;;;;;;1.90;74.52;99546.00;4906210;29;20060;-96
2023/12/11 01:43:50;;;;;;;12.45;7.47;;;;;;;2.08;74.79;99555.97;4955944;29;20147;-96
2023/12/11 01:46:40;;;;;;;13.70;7.93;;;;;;;1.95;74.82;99540.06;4939375;29;20071;-95
2023/12/11 01:49:41;;;;;;;11.23;7.28;;;;;;;1.87;74.60;99534.97;4938338;29;20047;-96
2023/12/11 01:52:13;;;;;;;12.40;7.35;;;;;;;1.85;74.89;99537.03;4939053;29;20031;-95
2023/12/11 01:54:57;;;;;;;12.32;7.00;;;;;;;1.99;74.40;99533.31;4939112;29;20030;-96
2023/12/11 01:57:24;;;;;;;14.88;7.97;;;;;;;1.94;74.85;99543.75;4917608;29;20095;-95
2023/12/11 01:59:50;;;;;;;13.93;7.22;;;;;;;1.82;75.67;99527.63;4915637;29;20028;-96
2023/12/11 02:02:22;;;;;;;13.80;7.53;;;;;;;1.90;75.21;99537.22;4916429;29;20035;-95
2023/12/11 02:04:53;;;;;;;15.02;7.45;;;;;;;1.76;75.44;99533.78;4917349;29;20055;-95
2023/12/11 02:07:28;;;;;;;12.15;7.25;;;;;;;1.60;75.34;99519.94;4918349;29;20036;-95
2023/12/11 02:09:59;;;;;;;14.93;7.78;;;;;;;1.63;75.96;99525.84;4934616;29;20036;-96
2023/12/11 02:12:32;;;;;;;12.43;7.60;;;;;;;1.52;76.03;99516.69;5216908;23;20059;-96
2023/12/11 02:15:02;;;;;;;14.73;8.48;;;;;;;1.55;76.08;99518.91;4970911;28;20031;-96
2023/12/11 02:17:28;;;;;;;15.23;8.25;;;;;;;1.68;76.29;99534.00;4955006;28;20091;-95
2023/12/11 02:19:57;;;;;;;14.40;7.85;;;;;;;1.61;76.33;99507.47;4970228;28;20042;-96
2023/12/11 02:25:44;;;;;;;12.55;7.10;;;;;;;1.40;77.13;99514.63;4942356;29;20147;-96
2023/12/11 02:28:17;;;;;;;14.13;7.72;;;;;;;1.55;76.81;99532.16;4981920;28;20086;-96
2023/12/11 02:30:51;;;;;;;;;;;;;;;1.54;76.90;99543.81;4963681;28;20102;-96
2023/12/11 02:33:22;;;;;;;14.00;7.78;;;;;;;1.48;76.90;99521.56;4980738;28;19925;-95
2023/12/11 02:36:08;;;;;;;15.50;9.18;;;;;;;1.53;76.30;99519.09;4995988;28;20022;-96
2023/12/11 02:38:46;;;;;;;12.73;6.85;;;;;;;1.47;76.63;99511.97;4979459;28;20037;-95
2023/12/11 02:41:29;;;;;;;13.20;7.80;;;;;;;1.48;76.23;99510.94;4995615;28;20058;-96
2023/12/11 02:44:21;;;;;;;13.50;7.88;;;;;;;1.55;76.05;99508.28;4995986;28;20358;-96
2023/12/11 02:46:53;;;;;;;17.17;8.38;;;;;;;1.58;76.03;99526.47;4964360;28;20025;-96
2023/12/11 02:49:22;;;;;;;19.05;9.23;;;;;;;1.49;75.84;99503.81;4971658;28;20398;-95
2023/12/11 02:51:55;;;;;;;18.05;8.70;;;;;;;1.57;75.74;99516.84;4956623;28;20036;-96
2023/12/11 02:54:25;;;;;;;13.57;8.40;;;;;;;1.74;76.34;99543.78;4991410;28;20046;-95
2023/12/11 02:56:54;;;;;;;14.20;8.57;;;;;;;1.75;76.21;99548.09;4990779;28;20112;-95
2023/12/11 02:59:24;;;;;;;15.43;9.00;;;;;;;1.56;76.23;99528.50;4989925;28;20051;-95
2023/12/11 03:01:55;;;;;;;16.27;8.77;;;;;;;1.29;76.81;99523.22;4974039;28;20027;-95
2023/12/11 03:04:32;;;;;;;18.35;11.65;;;;;;;1.23;76.91;99537.28;4973715;28;20038;-94
2023/12/11 03:07:01;;;;;;;20.35;10.57;;;;;;;1.08;78.16;99524.22;4990193;28;20031;-94
2023/12/11 03:09:29;;;;;;;16.20;9.02;;;;;;;1.21;78.12;99542.78;4973798;28;20025;-95
2023/12/11 03:12:08;;;;;;;19.60;9.25;;;;;;;1.09;77.30;99522.38;4973368;28;20039;-95
2023/12/11 03:14:36;;;;;;;14.30;8.55;;;;;;;1.18;77.41;99560.94;4973347;28;20050;-95
2023/12/11 03:17:07;;;;;;;14.18;7.93;;;;;;;1.07;77.46;99530.53;4974637;28;20362;-94
2023/12/11 03:19:36;;;;;;;17.70;8.52;;;;;;;1.29;77.40;99556.88;4989945;28;20041;-95
2023/12/11 03:22:03;;;;;;;13.40;7.95;;;;;;;1.10;76.60;99527.50;4990382;28;20030;-95
2023/12/11 03:24:34;;;;;;;15.48;8.93;;;;;;;1.20;77.02;99535.03;4973542;28;20034;-96
2023/12/11 03:27:01;;;;;;;16.52;9.05;;;;;;;1.12;77.64;99535.22;4957513;28;20043;-94
2023/12/11 03:29:31;;;;;;;16.38;8.27;;;;;;;1.10;77.25;99532.78;4973390;28;20128;-95
2023/12/11 03:31:57;;;;;;;13.77;7.72;;;;;;;1.08;76.99;99529.53;4972538;28;20030;-96
2023/12/11 03:34:26;;;;;;;13.07;7.78;;;;;;;1.11;77.54;99528.31;4974665;28;20021;-95
2023/12/11 03:36:56;;;;;;;16.00;8.75;;;;;;;1.00;76.95;99511.16;4974653;28;20033;-96
2023/12/11 03:39:22;;;;;;;15.45;8.07;;;;;;;1.03;77.72;99534.59;4957778;28;20046;-96
2023/12/11 03:41:58;;;;;;;12.20;7.60;;;;;;;1.10;77.54;99550.50;4975710;28;20109;-96
2023/12/11 03:44:25;;;;;;;16.55;8.35;;;;;;;1.04;78.06;99536.25;4974737;28;20030;-96
2023/12/11 03:46:57;;;;;;;15.68;8.93;;;;;;;1.05;77.57;99527.25;4974216;28;20018;-95
2023/12/11 03:49:27;;;;;;;18.65;10.57;;;;;;;1.19;77.71;99560.75;4990738;28;20034;-96
2023/12/11 03:52:02;;;;;;;16.52;10.13;;;;;;;0.99;78.47;99530.72;4974972;28;20030;-96
2023/12/11 03:54:42;;;;;;;19.98;11.05;;;;;;;0.99;77.40;99526.22;4977807;28;20089;-96
2023/12/11 03:57:36;;;;;;;17.48;9.80;;;;;;;0.90;78.10;99526.66;4977978;28;20049;-96
2023/12/11 04:00:22;;;;;;;15.77;9.18;;;;;;;0.86;78.40;99526.22;4993078;28;20027;-96
2023/12/11 04:02:54;;;;;;;18.27;9.80;;;;;;;0.92;78.62;99538.69;4993083;28;20046;-96
2023/12/11 04:05:20;;;;;;;17.23;10.05;;;;;;;0.95;77.78;99534.78;4993207;28;20038;-96
2023/12/11 04:07:58;;;;;;;16.75;9.35;;;;;;;1.08;77.56;99524.22;4961279;28;20039;-96
2023/12/11 04:10:30;;;;;;;15.05;8.88;;;;;;;1.40;77.77;99569.53;4978438;28;20038;-96
2023/12/11 04:13:40;;;;;;;19.90;10.15;;;;;;;1.25;78.07;99555.66;4963229;28;20019;-95
2023/12/11 04:16:14;;;;;;;17.88;9.55;;;;;;;1.06;77.98;99534.22;4937493;29;20095;-96
2023/12/11 04:18:52;;;;;;;15.57;8.85;;;;;;;1.05;77.72;99529.09;4935992;29;20139;-96
2023/12/11 04:21:25;;;;;;;17.70;9.38;;;;;;;1.33;77.48;99564.22;4922163;29;20038;-96
2023/12/11 04:24:05;;;;;;;13.02;7.40;;;;;;;1.24;77.10;99540.75;4902264;29;20031;-96
2023/12/11 04:26:30;;;;;;;16.02;8.65;;;;;;;1.28;77.63;99563.19;4901262;29;20044;-95
2023/12/11 04:28:56;;;;;;;16.40;8.68;;;;;;;1.28;76.50;99536.66;4909512;29;20038;-96
2023/12/11 04:31:23;;;;;;;15.05;8.60;;;;;;;1.60;76.65;99582.81;4906559;29;20040;-96
2023/12/11 04:33:52;;;;;;;16.35;8.70;;;;;;;1.36;76.21;99533.81;4906765;29;20059;-95
2023/12/11 04:36:19;;;;;;;14.65;8.70;;;;;;;1.36;76.66;99547.88;4902791;29;20035;-94
2023/12/11 04:38:45;;;;;;;16.17;9.27;;;;;;;1.32;76.63;99557.28;4873784;29;20131;-94
2023/12/11 04:41:15;;;;;;;20.80;9.43;;;;;;;1.40;76.94;99580.13;4888984;29;20051;-95
2023/12/11 04:43:40;;;;;;;14.73;7.85;;;;;;;1.42;76.50;99549.72;4887757;29;20104;-96
2023/12/11 04:46:06;;;;;;;17.23;9.85;;;;;;;1.67;76.29;99583.59;4912044;28;20495;-94
2023/12/11 04:51:55;;;;;;;28.93;11.50;;;;;;;1.47;76.94;99572.19;4978101;28;20112;-95
2023/12/11 04:54:21;;;;;;;17.10;9.43;;;;;;;1.51;76.61;99584.81;4945095;28;20081;-96
2023/12/11 04:56:47;;;;;;;19.15;9.63;;;;;;;1.61;76.71;99581.78;4944824;28;20085;-96
2023/12/11 04:59:13;;;;;;;16.92;9.20;;;;;;;1.43;76.96;99563.81;4961597;28;20035;-94
2023/12/11 05:01:39;;;;;;;31.30;13.73;;;;;;;1.47;76.47;99567.69;4959624;28;20549;-95
2023/12/11 05:04:06;;;;;;;30.00;12.65;;;;;;;1.28;76.61;99558.69;4960041;28;20037;-94
2023/12/11 05:06:35;;;;;;;23.52;11.32;;;;;;;1.39;76.90;99562.56;4944596;28;20022;-94
2023/12/11 05:09:01;;;;;;;18.27;10.35;;;;;;;1.32;77.02;99567.06;4961608;28;20022;-95
2023/12/11 05:11:28;;;;;;;16.02;10.45;;;;;;;1.39;76.51;99574.03;4945760;28;20184;-95
2023/12/11 05:13:54;;;;;;;34.38;24.65;;;;;;;1.40;76.11;99569.53;4979610;28;20058;-94
2023/12/11 05:16:19;;;;;;;25.15;12.65;;;;;;;1.46;76.38;99579.31;4960438;28;20482;-94
2023/12/11 05:18:46;;;;;;;19.58;10.93;;;;;;;1.35;76.66;99583.41;4964644;28;20081;-95
2023/12/11 05:21:11;;;;;;;17.42;9.13;;;;;;;1.38;76.54;99566.25;4964333;28;20117;-95
2023/12/11 05:23:37;;;;;;;16.67;8.93;;;;;;;1.39;76.70;99562.56;4947021;28;20042;-95
2023/12/11 05:26:07;;;;;;;16.00;9.85;;;;;;;1.35;76.72;99548.09;4977656;28;20030;-96
2023/12/11 05:28:34;;;;;;;19.30;11.20;;;;;;;1.37;76.79;99557.50;4924382;29;20041;-96
2023/12/11 05:31:05;;;;;;;21.27;11.63;;;;;;;1.38;76.89;99553.00;4904660;29;20059;-96
2023/12/11 05:33:38;;;;;;;19.10;11.80;;;;;;;1.48;76.42;99566.69;4903733;29;20073;-96
2023/12/11 05:36:07;;;;;;;24.90;14.07;;;;;;;1.80;75.62;99580.94;4889482;29;20051;-96
2023/12/11 05:38:41;;;;;;;23.08;12.98;;;;;;;1.75;75.57;99550.75;4938736;29;20498;-96
2023/12/11 05:41:10;;;;;;;24.48;12.68;;;;;;;2.01;75.17;99571.94;4904921;29;20051;-95
2023/12/11 05:44:14;;;;;;;24.33;13.77;;;;;;;1.95;75.33;99553.34;4922415;29;20040;-96
2023/12/11 05:46:57;;;;;;;20.92;10.85;;;;;;;1.84;75.64;99552.13;4878899;29;20105;-95
2023/12/11 05:49:38;;;;;;;41.85;25.23;;;;;;;1.91;75.96;99560.94;4898893;29;20055;-96
2023/12/11 05:52:05;;;;;;;22.90;12.40;;;;;;;1.82;76.12;99538.25;4898219;29;20041;-95
2023/12/11 05:54:34;;;;;;;22.20;12.38;;;;;;;1.99;75.81;99557.22;4909433;29;20158;-95
2023/12/11 05:57:28;;;;;;;19.17;12.10;;;;;;;2.19;75.50;99570.44;4917607;28;20048;-95
2023/12/11 05:59:55;;;;;;;39.67;21.40;;;;;;;2.16;74.75;99549.63;4929072;29;20040;-96
2023/12/11 06:02:25;;;;;;;29.05;17.52;;;;;;;2.15;74.85;99548.78;4933054;29;20459;-95
2023/12/11 06:05:12;;;;;;;26.80;15.05;;;;;;;2.21;74.51;99525.91;4921676;28;20039;-96
2023/12/11 06:08:06;;;;;;;27.98;14.82;;;;;;;2.26;74.04;99528.72;4934082;29;20080;-96
2023/12/11 06:10:49;;;;;;;19.90;11.27;;;;;;;2.27;74.21;99545.50;4906628;29;20116;-96
2023/12/11 06:13:20;;;;;;;23.08;12.05;;;;;;;2.27;74.80;99543.66;4918229;28;20047;-94
2023/12/11 06:16:10;;;;;;;27.30;14.32;;;;;;;2.20;74.34;99529.56;4895106;29;20048;-95
2023/12/11 06:18:51;;;;;;;24.42;13.70;;;;;;;2.29;74.21;99540.81;4919432;29;20141;-96
2023/12/11 06:21:23;;;;;;;22.08;13.02;;;;;;;2.51;73.99;99554.59;4900855;29;20191;-96
2023/12/11 06:29:47;;;;;;;22.60;13.73;;;;;;;2.42;73.89;99551.38;5145665;23;20086;-96
2023/12/11 06:33:06;;;;;;;25.38;13.73;;;;;;;2.64;73.77;99567.84;4961116;29;20055;-95
2023/12/11 06:35:33;;;;;;;24.63;13.65;;;;;;;2.61;73.45;99554.97;4954241;29;20147;-94
2023/12/11 06:38:03;;;;;;;31.15;14.35;;;;;;;2.90;72.95;99568.72;4934714;29;20035;-95
2023/12/11 06:40:55;;;;;;;21.42;11.63;;;;;;;3.05;72.48;99585.22;4914526;29;20081;-96
2023/12/11 06:43:40;;;;;;;21.77;9.88;;;;;;;3.12;72.36;99580.66;4914877;29;20036;-95
2023/12/11 06:46:06;;;;;;;18.30;11.18;;;;;;;3.24;71.90;99570.16;5212734;23;20047;-96
2023/12/11 06:48:38;;;;;;;18.73;12.18;;;;;;;3.41;71.75;99584.56;4937067;28;20026;-93
2023/12/11 06:51:03;;;;;;;18.55;10.45;;;;;;;3.44;70.60;99578.81;4953664;28;20118;-95
2023/12/11 06:53:30;;;;;;;21.30;11.98;;;;;;;3.45;71.32;99582.28;4936562;28;20066;-93
2023/12/11 06:55:55;;;;;;;22.02;12.68;;;;;;;3.24;71.36;99560.31;4950614;28;20027;-95
2023/12/11 06:58:21;;;;;;;18.52;11.15;;;;;;;3.36;70.88;99584.41;4935491;28;20097;-94
2023/12/11 07:00:47;;;;;;;21.23;11.35;;;;;;;3.08;71.46;99554.72;4935994;28;20082;-95
2023/12/11 07:03:40;;;;;;;27.17;13.50;;;;;;;2.91;71.74;99563.19;4954313;28;20019;-94
2023/12/11 07:06:06;;;;;;;20.70;11.70;;;;;;;2.90;71.37;99542.13;4948947;28;20054;-96
2023/12/11 07:08:32;;;;;;;23.08;13.02;;;;;;;2.90;71.67;99571.38;4949389;28;20445;-95
2023/12/11 07:11:00;;;;;;;21.88;11.95;;;;;;;2.95;71.58;99572.38;4938947;28;20173;-94
2023/12/11 07:13:26;;;;;;;23.85;11.98;;;;;;;3.09;72.09;99564.31;4951195;28;20033;-95
2023/12/11 07:15:52;;;;;;;20.83;9.93;;;;;;;3.25;71.03;99582.41;4953960;28;20003;-96
2023/12/11 07:18:18;;;;;;;18.58;10.45;;;;;;;3.24;70.42;99588.78;4953440;28;20520;-95
2023/12/11 07:20:44;;;;;;;22.05;11.85;;;;;;;3.35;69.69;99592.59;4936679;28;20037;-96
2023/12/11 07:23:27;;;;;;;16.05;10.55;;;;;;;3.31;69.80;99586.06;4953383;28;20030;-96
2023/12/11 07:25:56;;;;;;;19.15;10.38;;;;;;;3.42;70.12;99611.97;4959575;28;20115;-96
2023/12/11 07:28:24;;;;;;;17.95;11.73;;;;;;;3.47;70.14;99588.19;4952636;28;20090;-94
2023/12/11 07:30:59;;;;;;;20.05;10.70;;;;;;;3.44;69.36;99575.31;4950298;28;20507;-95
2023/12/11 07:33:39;;;;;;;42.00;32.20;;;;;;;3.71;69.83;99597.22;4953887;28;20054;-96
2023/12/11 07:36:05;;;;;;;20.88;14.13;;;;;;;3.79;70.27;99601.47;4943206;28;20094;-96
2023/12/11 07:51:54;;;;;;;25.92;17.00;;;;;;;4.47;66.79;99587.25;5811679;23;20103;-95
2023/12/11 07:54:30;;;;;;;15.82;9.43;;;;;;;4.63;65.85;99601.84;4954955;28;20030;-95
2023/12/11 07:56:56;;;;;;;18.35;10.45;;;;;;;4.64;65.84;99596.25;4973805;28;20023;-93
2023/12/11 07:59:21;;;;;;;18.70;10.43;;;;;;;4.72;65.89;99602.34;4967825;28;20112;-95
2023/12/11 08:01:52;;;;;;;16.17;10.38;;;;;;;4.74;65.78;99584.25;4971255;28;20044;-93
2023/12/11 08:04:17;;;;;;;13.80;8.52;;;;;;;5.00;65.80;99613.25;4955469;28;20030;-94
2023/12/11 08:06:46;;;;;;;24.25;11.43;;;;;;;4.95;65.35;99593.63;4954580;28;20041;-93
2023/12/11 08:09:26;;;;;;;15.43;9.00;;;;;;;4.84;65.62;99588.00;4960734;28;20022;-96
2023/12/11 08:11:52;;;;;;;13.00;8.57;;;;;;;4.89;65.29;99591.84;4971730;28;20030;-94
2023/12/11 08:14:19;;;;;;;11.75;7.82;;;;;;;4.94;65.44;99594.66;4957749;28;20033;-95
2023/12/11 08:16:44;;;;;;;37.80;21.25;;;;;;;4.99;66.04;99603.59;4952406;28;20026;-94
2023/12/11 08:19:10;;;;;;;23.65;11.35;;;;;;;4.74;66.87;99584.25;4953146;28;20044;-96
2023/12/11 08:21:42;;;;;;;23.17;12.23;;;;;;;4.91;66.34;99579.91;4973132;28;20030;-96
2023/12/11 08:42:44;;;;;;;15.95;9.65;;;;;;;5.32;65.84;99566.81;5500935;23;20058;-95
2023/12/11 08:45:09;;;;;;;27.17;12.25;;;;;;;5.68;65.02;99584.50;4961525;28;20034;-94
2023/12/11 08:47:43;;;;;;;22.15;10.23;;;;;;;5.74;65.09;99585.44;4955089;28;20030;-94
2023/12/11 08:50:14;;;;;;;23.33;11.65;;;;;;;5.92;64.59;99595.22;4973775;28;20045;-93
2023/12/11 08:52:43;;;;;;;19.73;10.35;;;;;;;5.75;63.79;99576.38;4969657;28;20056;-96
2023/12/11 08:55:09;;;;;;;16.67;9.15;;;;;;;5.75;64.37;99579.03;4972623;28;20040;-96
2023/12/11 08:58:06;;;;;;;;;;;;;;;;;;;;;
2023/12/11 09:00:35;;;;;;;17.45;9.98;;;;;;;5.48;64.93;99555.47;4995275;28;20054;-93
2023/12/11 09:03:23;;;;;;;25.30;12.32;;;;;;;5.46;65.16;99550.34;4959604;28;20060;-95
2023/12/11 09:05:50;;;;;;;25.58;14.63;;;;;;;5.57;65.07;99548.72;4962954;28;20066;-95
2023/12/11 09:08:20;;;;;;;24.10;11.65;;;;;;;5.40;65.77;99551.28;4949481;29;20154;-96
2023/12/11 09:10:46;;;;;;;18.35;10.60;;;;;;;5.57;64.69;99555.94;4928191;29;20042;-94
2023/12/11 09:13:18;;;;;;;23.77;11.82;;;;;;;5.55;64.53;99548.16;4929774;29;20039;-95
2023/12/11 09:15:51;;;;;;;20.48;12.25;;;;;;;5.61;65.35;99567.78;4916070;29;20031;-94
2023/12/11 09:18:17;;;;;;;17.10;11.25;;;;;;;5.71;65.31;99548.50;4932864;29;20031;-95
2023/12/11 09:20:46;;;;;;;17.08;10.23;;;;;;;5.98;64.88;99570.28;4915563;29;20510;-95
2023/12/11 09:23:24;;;;;;;21.13;11.05;;;;;;;5.89;64.48;99540.34;4933214;29;20131;-95
2023/12/11 09:26:04;;;;;;;20.23;12.13;;;;;;;5.93;64.84;99536.19;4954321;28;20039;-95
2023/12/11 09:28:33;;;;;;;27.35;12.30;;;;;;;6.08;64.74;99533.06;4935382;29;20035;-95
2023/12/11 09:31:00;;;;;;;16.02;10.32;;;;;;;6.54;63.79;99552.72;4966740;28;20046;-95
2023/12/11 09:33:37;;;;;;;24.20;11.95;;;;;;;6.64;63.59;99544.91;4989026;28;20031;-95
2023/12/11 09:46:42;;;;;;;20.92;10.00;;;;;;;7.39;62.42;99540.34;4954865;29;20092;-95
2023/12/11 09:52:59;;;;;;;25.10;12.27;;;;;;;7.73;61.14;99536.81;4886246;29;20056;-95
2023/12/11 09:55:55;;;;;;;;;;;;;;;;;;;;;
2023/12/11 09:58:22;;;;;;;19.45;10.25;;;;;;;7.96;60.08;99507.13;4886276;29;20056;-95
2023/12/11 10:00:49;;;;;;;22.77;11.60;;;;;;;8.13;60.06;99533.88;4886508;29;20032;-96
2023/12/11 10:03:51;;;;;;;16.75;10.77;;;;;;;8.06;59.64;99514.50;4908826;29;20044;-95
2023/12/11 10:06:16;;;;;;;23.02;11.38;;;;;;;7.74;59.91;99511.63;4948949;28;20055;-95
2023/12/11 10:09:05;;;;;;;59.15;31.58;;;;;;;7.79;60.15;99511.72;4939679;28;20039;-96
2023/12/11 10:46:54;;;;;;;23.30;11.13;;;;;;;7.84;61.24;99450.97;5551403;22;15200888;-96
2023/12/11 10:49:34;;;;;;;;;;;;;;;;;;;;;
2023/12/11 10:56:27;;;;;;;19.65;7.88;;;;;;;8.12;61.04;99467.91;6141558;23;20017;-95
2023/12/11 11:01:59;;;;;;;11.07;6.25;;;;;;;8.01;60.17;99448.22;6164076;23;20001;-94
2023/12/11 11:04:33;;;;;;;9.88;6.65;;;;;;;8.15;59.99;99440.56;6165246;23;20076;-96
2023/12/11 11:14:40;;;;;;;11.30;5.57;;;;;;;8.59;58.84;99455.84;6241836;23;20035;-96
2023/12/11 11:17:53;;;;;;;7.07;5.18;;;;;;;8.19;58.79;99412.19;6200467;23;20012;-95
2023/12/11 11:21:11;;;;;;;8.85;5.47;;;;;;;8.39;58.66;99400.06;6242552;23;20435;-96
2023/12/11 11:24:24;;;;;;;;;;;;;;;;;;;;;
2023/12/11 11:27:17;;;;;;;32.88;12.88;;;;;;;8.56;58.58;99392.75;6239028;23;20000;-96
2023/12/11 11:30:12;;;;;;;;;;;;;;;8.76;58.32;99418.13;6205864;23;20059;-95
2023/12/11 11:33:35;;;;;;;8.57;6.03;;;;;;;8.66;58.27;99417.00;6204630;23;19903;-94
2023/12/11 11:43:48;;;;;;;;;;;;;;;;;;;;;
2023/12/11 11:46:27;;;;;;;;;;;;;;;;;;;;;
2023/12/11 11:49:15;;;;;;;11.55;8.38;;;;;;;8.60;57.71;99382.31;6093779;23;20037;-96
2023/12/11 11:51:53;;;;;;;11.88;6.22;;;;;;;8.65;57.74;99379.66;6178185;22;20015;-96
2023/12/11 11:54:21;;;;;;;13.53;9.17;;;;;;;8.52;57.53;99351.38;6179920;23;20008;-91
2023/12/11 11:56:47;;;;;;;11.15;5.80;;;;;;;8.51;57.80;99355.16;6184037;23;20010;-95
2023/12/11 12:03:08;;;;;;;13.93;7.47;;;;;;;8.65;57.38;99342.09;6198443;23;20010;-94
2023/12/11 12:06:03;;;;;;;15.90;8.77;;;;;;;8.85;57.46;99374.47;6264212;22;20012;-95
2023/12/11 12:08:36;;;;;;;10.13;5.70;;;;;;;8.84;56.87;99367.50;6187759;23;20038;-96
2023/12/11 12:11:11;;;;;;;7.75;5.30;;;;;;;8.86;56.83;99368.03;6185592;23;20265;-93
2023/12/11 12:13:40;;;;;;;9.98;5.47;;;;;;;8.81;56.96;99356.44;6188375;23;20003;-93
2023/12/11 12:16:06;;;;;;;9.85;6.00;;;;;;;8.80;56.52;99347.59;6213448;23;20004;-93
2023/12/11 12:18:32;;;;;;;14.18;7.15;;;;;;;8.78;57.09;99336.31;6187434;23;20007;-95
2023/12/11 12:21:09;;;;;;;15.15;10.48;;;;;;;8.77;57.14;99310.50;6189669;23;20004;-94
2023/12/11 12:23:38;;;;;;;9.38;6.85;;;;;;;8.86;57.08;99322.41;6190637;23;20095;-93
2023/12/11 12:26:06;;;;;;;11.30;6.95;;;;;;;8.93;56.94;99321.38;6189994;23;20053;-95
2023/12/11 12:35:17;;;;;;;57.15;31.73;;;;;;;8.88;57.17;99303.31;6257217;23;20065;-96
2023/12/11 12:37:47;;;;;;;21.27;11.45;;;;;;;9.01;57.30;99329.75;6208379;23;19996;-95
2023/12/11 12:40:17;;;;;;;15.85;8.90;;;;;;;9.09;57.19;99329.25;6210321;23;20007;-96
2023/12/11 12:42:43;;;;;;;20.38;11.52;;;;;;;8.86;56.96;99306.28;6182676;23;20299;-94
2023/12/11 12:45:34;;;;;;;20.77;9.70;;;;;;;8.78;57.30;99274.56;6209799;23;20003;-96
2023/12/11 12:48:03;;;;;;;11.75;5.97;;;;;;;8.83;56.91;99289.88;6185366;23;19996;-94
2023/12/11 12:50:31;;;;;;;16.52;6.80;;;;;;;8.85;57.34;99287.75;6182888;23;20048;-94
2023/12/11 12:53:10;;;;;;;17.98;7.70;;;;;;;8.85;57.48;99283.19;6171717;23;20036;-94
2023/12/11 12:58:41;;;;;;;11.82;6.50;;;;;;;8.68;57.45;99256.50;6124548;23;19997;-94
2023/12/11 13:01:07;;;;;;;13.80;7.00;;;;;;;8.84;57.44;99270.84;6170999;23;20009;-93
2023/12/11 13:03:33;;;;;;;22.63;9.18;;;;;;;8.86;57.44;99259.81;6170426;23;20039;-94
2023/12/11 13:06:11;;;;;;;12.77;7.32;;;;;;;8.88;57.21;99255.00;6171301;23;20004;-95
2023/12/11 13:08:43;;;;;;;17.60;7.05;;;;;;;8.95;56.83;99252.91;6170140;23;20032;-94
2023/12/11 13:11:09;;;;;;;10.77;5.95;;;;;;;9.04;56.58;99272.81;6167317;23;20012;-93
2023/12/11 13:13:43;;;;;;;10.27;7.22;;;;;;;9.05;56.35;99257.53;6198374;23;20000;-96
2023/12/11 13:16:12;;;;;;;12.77;7.63;;;;;;;9.02;56.18;99245.41;6178260;23;20382;-95
2023/12/11 13:19:01;;;;;;;14.13;7.50;;;;;;;9.06;56.30;99265.31;6171750;23;20039;-94
2023/12/11 13:21:34;;;;;;;15.60;7.72;;;;;;;9.10;56.35;99258.34;6115944;23;20001;-96
2023/12/11 13:24:09;;;;;;;10.95;6.97;;;;;;;9.11;56.36;99240.38;6109680;23;20005;-92
2023/12/11 13:26:36;;;;;;;15.82;8.88;;;;;;;9.12;56.49;99222.38;6135848;23;20076;-93
2023/12/11 13:29:25;;;;;;;10.70;6.70;;;;;;;9.09;55.72;99235.25;6109912;23;20033;-93
2023/12/11 13:32:19;;;;;;;;;;;;;;;;;;;;;
2023/12/11 13:41:41;;;;;;;18.73;8.10;;;;;;;8.75;58.07;99225.94;6033534;23;20029;-95
2023/12/11 13:44:46;;;;;;;16.42;8.98;;;;;;;8.61;58.39;99217.53;6024074;23;20019;-92
2023/12/11 13:47:24;;;;;;;18.80;8.95;;;;;;;8.56;59.19;99242.47;6020947;23;20015;-90
2023/12/11 13:50:12;;;;;;;20.42;9.68;;;;;;;8.42;59.66;99238.59;6102169;23;20093;-92
2023/12/11 13:56:25;;;;;;;11.48;8.38;;;;;;;8.35;59.10;99229.94;6041370;23;20017;-90
2023/12/11 13:58:54;;;;;;;15.13;8.55;;;;;;;8.26;60.21;99208.97;6093350;23;20029;-89
2023/12/11 14:01:20;;;;;;;13.02;8.45;;;;;;;8.46;60.46;99245.88;6169403;23;20092;-91
2023/12/11 14:03:52;;;;;;;11.93;8.32;;;;;;;8.31;60.99;99226.97;6172638;23;20402;-91
2023/12/11 14:07:02;;;;;;;18.85;10.10;;;;;;;8.19;61.31;99208.38;6176149;23;20000;-93
2023/12/11 14:09:29;;;;;;;13.73;9.27;;;;;;;8.11;61.38;99195.44;6223303;23;20007;-93
2023/12/11 14:12:13;;;;;;;16.33;9.90;;;;;;;8.26;61.77;99225.06;6174025;23;20004;-91
2023/12/11 14:14:54;;;;;;;18.17;11.38;;;;;;;8.26;62.00;99218.91;6181683;23;20042;-95
2023/12/11 14:17:19;;;;;;;20.05;12.38;;;;;;;8.37;62.28;99241.25;6213930;23;20039;-95
2023/12/11 14:20:04;;;;;;;20.45;11.68;;;;;;;8.23;61.94;99222.88;6184285;23;20000;-94
2023/12/11 14:22:41;;;;;;;34.47;20.30;;;;;;;8.12;62.25;99196.25;6209194;23;20004;-95
2023/12/11 14:25:09;;;;;;;19.75;12.73;;;;;;;8.10;62.00;99204.56;6202484;23;20132;-93
2023/12/11 14:28:03;;;;;;;19.80;12.55;;;;;;;8.07;62.55;99211.25;6176262;23;20072;-95
2023/12/11 14:30:33;;;;;;;21.92;12.65;;;;;;;8.05;63.15;99199.97;6188664;23;20310;-93
2023/12/11 14:32:58;;;;;;;27.80;16.33;;;;;;;8.07;63.17;99213.09;6176202;23;20099;-91
2023/12/11 14:35:33;;;;;;;33.83;15.18;;;;;;;8.23;62.91;99243.53;6199580;23;19984;-95